Time;durP1;ratioP1;P1;durP2;ratioP2;P2;SDS_P1;SDS_P2;PMS_P1;PMS_P2;Temp;Humidity;BMP_temperature;BMP_pressure;BME280_temperature;BME280_humidity;BME280_pressure;Samples;Min_cycle;Max_cycle;Signal;HPM_P1;HPM_P2
2022/07/09 00:01:58;;;;;;;1.52;0.60;;;;;;;;;;5016562;28;20085;-59
2022/07/09 00:04:25;;;;;;;2.10;0.65;;;;;;;;;;5008040;28;20065;-55
2022/07/09 00:06:51;;;;;;;1.80;0.85;;;;;;;;;;5005054;28;20433;-60
2022/07/09 00:09:17;;;;;;;1.55;0.60;;;;;;;;;;5013893;28;20037;-53
2022/07/09 00:11:42;;;;;;;1.25;0.70;;;;;;;;;;5009890;28;20034;-60
2022/07/09 00:14:08;;;;;;;2.05;0.80;;;;;;;;;;5015454;28;20030;-59
2022/07/09 00:16:34;;;;;;;1.70;0.70;;;;;;;;;;5009844;28;20039;-60
2022/07/09 00:19:00;;;;;;;1.08;0.60;;;;;;;;;;5011869;28;20496;-59
2022/07/09 00:21:26;;;;;;;2.60;0.80;;;;;;;;;;5013724;28;20136;-60
2022/07/09 00:23:52;;;;;;;3.08;0.80;;;;;;;;;;5009748;28;20498;-60
2022/07/09 00:26:18;;;;;;;1.00;0.63;;;;;;;;;;5008856;28;20064;-55
2022/07/09 00:28:45;;;;;;;3.47;0.60;;;;;;;;;;5010326;28;20026;-61
2022/07/09 00:31:11;;;;;;;1.33;0.77;;;;;;;;;;5013558;28;20042;-59
2022/07/09 00:33:37;;;;;;;3.28;1.20;;;;;;;;;;5008944;28;20045;-53
2022/07/09 00:36:03;;;;;;;1.00;0.80;;;;;;;;;;5014970;28;20068;-58
2022/07/09 00:38:29;;;;;;;1.15;0.68;;;;;;;;;;5004510;28;20026;-58
2022/07/09 00:40:55;;;;;;;2.05;0.60;;;;;;;;;;5014475;28;20030;-59
2022/07/09 00:43:22;;;;;;;4.30;0.80;;;;;;;;;;5015863;28;20039;-50
2022/07/09 00:45:48;;;;;;;3.30;0.77;;;;;;;;;;5003375;28;20385;-55
2022/07/09 00:48:14;;;;;;;2.60;0.85;;;;;;;;;;5018003;28;20053;-56
2022/07/09 00:50:41;;;;;;;4.68;1.27;;;;;;;;;;5011460;28;20057;-58
2022/07/09 00:53:08;;;;;;;1.85;0.90;;;;;;;;;;5016338;28;20061;-58
2022/07/09 00:55:35;;;;;;;2.17;0.80;;;;;;;;;;5011356;28;20383;-59
2022/07/09 00:58:02;;;;;;;2.40;0.98;;;;;;;;;;5016096;28;20458;-58
2022/07/09 01:00:28;;;;;;;1.88;0.75;;;;;;;;;;5000553;28;20030;-57
2022/07/09 01:02:54;;;;;;;4.93;0.90;;;;;;;;;;5019761;28;20045;-58
2022/07/09 01:05:20;;;;;;;2.03;0.88;;;;;;;;;;5008418;28;20022;-58
2022/07/09 01:07:46;;;;;;;1.52;1.02;;;;;;;;;;5020986;28;20027;-59
2022/07/09 01:10:12;;;;;;;1.15;0.80;;;;;;;;;;5015856;28;20065;-58
2022/07/09 01:12:38;;;;;;;2.03;1.00;;;;;;;;;;5012251;28;20033;-59
2022/07/09 01:15:05;;;;;;;1.50;0.90;;;;;;;;;;5012935;28;20053;-59
2022/07/09 01:17:40;;;;;;;4.20;1.25;;;;;;;;;;5015249;28;20446;-59
2022/07/09 01:20:07;;;;;;;1.20;0.60;;;;;;;;;;5011764;28;20403;-58
2022/07/09 01:22:33;;;;;;;1.85;0.80;;;;;;;;;;5012111;28;20026;-58
2022/07/09 01:25:01;;;;;;;1.95;0.98;;;;;;;;;;5018077;28;20037;-59
2022/07/09 01:27:27;;;;;;;1.20;0.73;;;;;;;;;;5014679;28;20033;-58
2022/07/09 01:29:53;;;;;;;4.00;1.00;;;;;;;;;;5007119;28;20036;-58
2022/07/09 01:32:19;;;;;;;1.23;0.80;;;;;;;;;;5012921;28;20030;-59
2022/07/09 01:34:45;;;;;;;1.83;0.70;;;;;;;;;;5019586;28;20025;-59
2022/07/09 01:37:11;;;;;;;3.08;1.23;;;;;;;;;;5014417;28;20022;-59
2022/07/09 01:39:49;;;;;;;1.80;0.70;;;;;;;;;;5013976;28;20026;-59
2022/07/09 01:42:15;;;;;;;1.80;0.93;;;;;;;;;;5012338;28;20141;-59
2022/07/09 01:44:41;;;;;;;2.65;0.80;;;;;;;;;;5013356;28;20046;-59
2022/07/09 01:47:07;;;;;;;1.85;0.75;;;;;;;;;;5021584;28;20028;-59
2022/07/09 01:49:33;;;;;;;1.08;0.80;;;;;;;;;;5015463;28;20030;-52
2022/07/09 01:51:59;;;;;;;1.23;0.85;;;;;;;;;;5014642;28;20096;-57
2022/07/09 01:54:25;;;;;;;1.30;0.70;;;;;;;;;;5019530;28;20029;-58
2022/07/09 01:56:52;;;;;;;1.40;1.02;;;;;;;;;;5015654;28;20096;-59
2022/07/09 01:59:18;;;;;;;1.67;0.70;;;;;;;;;;5011904;28;20065;-59
2022/07/09 02:01:43;;;;;;;2.05;0.73;;;;;;;;;;5010684;28;20061;-58
2022/07/09 02:04:09;;;;;;;3.10;0.80;;;;;;;;;;5009564;28;20048;-58
2022/07/09 02:06:35;;;;;;;3.17;0.80;;;;;;;;;;5010734;28;20093;-59
2022/07/09 02:09:01;;;;;;;3.38;1.10;;;;;;;;;;5010578;28;20501;-59
2022/07/09 02:11:27;;;;;;;3.10;1.55;;;;;;;;;;5012413;28;20059;-58
2022/07/09 02:13:53;;;;;;;2.22;1.05;;;;;;;;;;5015573;28;20041;-58
2022/07/09 02:16:19;;;;;;;2.70;1.35;;;;;;;;;;5016820;28;20080;-58
2022/07/09 02:18:45;;;;;;;1.45;0.70;;;;;;;;;;5014041;28;20678;-58
2022/07/09 02:21:11;;;;;;;2.55;1.13;;;;;;;;;;5007342;28;20032;-58
2022/07/09 02:23:37;;;;;;;3.05;0.98;;;;;;;;;;5013525;28;20058;-58
2022/07/09 02:26:03;;;;;;;1.95;1.00;;;;;;;;;;5024344;28;20065;-58
2022/07/09 02:28:29;;;;;;;1.52;0.75;;;;;;;;;;5011057;28;20034;-49
2022/07/09 02:30:57;;;;;;;1.38;0.73;;;;;;;;;;5009909;28;20105;-57
2022/07/09 02:33:23;;;;;;;1.75;0.70;;;;;;;;;;5021297;28;20530;-58
2022/07/09 02:35:49;;;;;;;1.90;0.70;;;;;;;;;;5019948;28;20105;-58
2022/07/09 02:38:15;;;;;;;1.23;0.70;;;;;;;;;;5011164;28;20038;-59
2022/07/09 02:40:41;;;;;;;1.52;0.90;;;;;;;;;;5010288;28;20022;-58
2022/07/09 02:43:07;;;;;;;2.15;0.77;;;;;;;;;;5019449;28;20092;-58
2022/07/09 02:45:33;;;;;;;4.03;1.52;;;;;;;;;;5017754;28;20034;-56
2022/07/09 02:48:00;;;;;;;2.63;0.95;;;;;;;;;;5017309;28;20050;-59
2022/07/09 02:50:26;;;;;;;2.45;0.95;;;;;;;;;;5012742;28;20030;-59
2022/07/09 02:52:52;;;;;;;2.88;0.80;;;;;;;;;;5020955;28;20050;-59
2022/07/09 02:55:18;;;;;;;1.45;0.82;;;;;;;;;;5012188;28;20038;-58
2022/07/09 02:57:44;;;;;;;2.55;0.88;;;;;;;;;;5023843;28;20032;-59
2022/07/09 03:00:10;;;;;;;2.50;0.90;;;;;;;;;;5019267;28;20034;-58
2022/07/09 03:02:36;;;;;;;2.40;0.75;;;;;;;;;;5015843;28;20141;-58
2022/07/09 03:05:02;;;;;;;2.10;0.85;;;;;;;;;;5014537;28;20118;-57
2022/07/09 03:07:29;;;;;;;1.73;0.80;;;;;;;;;;5020291;28;20053;-51
2022/07/09 03:09:56;;;;;;;2.25;0.95;;;;;;;;;;5011968;28;20022;-57
2022/07/09 03:12:22;;;;;;;1.92;0.88;;;;;;;;;;5002416;28;20037;-57
2022/07/09 03:14:48;;;;;;;1.20;0.90;;;;;;;;;;5010961;28;20022;-57
2022/07/09 03:17:14;;;;;;;2.17;0.80;;;;;;;;;;5017926;28;20053;-58
2022/07/09 03:19:40;;;;;;;2.42;1.23;;;;;;;;;;4994735;28;20061;-58
2022/07/09 03:22:06;;;;;;;1.20;0.90;;;;;;;;;;5010475;28;20037;-57
2022/07/09 03:24:32;;;;;;;1.30;0.73;;;;;;;;;;5016777;28;20033;-58
2022/07/09 03:26:58;;;;;;;1.40;0.80;;;;;;;;;;5013335;28;20149;-57
2022/07/09 03:29:24;;;;;;;1.40;0.73;;;;;;;;;;5011641;28;20491;-58
2022/07/09 03:31:50;;;;;;;3.30;0.88;;;;;;;;;;5012491;28;20030;-58
2022/07/09 03:34:16;;;;;;;1.52;0.82;;;;;;;;;;5016334;28;20422;-58
2022/07/09 03:36:42;;;;;;;2.67;0.85;;;;;;;;;;5013551;28;20022;-59
2022/07/09 03:39:09;;;;;;;1.83;0.98;;;;;;;;;;5008655;28;20659;-55
2022/07/09 03:41:35;;;;;;;2.33;0.80;;;;;;;;;;5012879;28;20026;-58
2022/07/09 03:44:01;;;;;;;3.33;0.85;;;;;;;;;;5014688;28;20026;-58
2022/07/09 03:46:29;;;;;;;1.23;0.80;;;;;;;;;;5014127;28;20029;-55
2022/07/09 03:48:55;;;;;;;2.10;1.08;;;;;;;;;;5014840;28;20071;-58
2022/07/09 03:51:21;;;;;;;1.70;1.10;;;;;;;;;;5020858;28;20037;-57
2022/07/09 03:53:47;;;;;;;1.20;0.70;;;;;;;;;;5020876;28;20054;-56
2022/07/09 03:56:13;;;;;;;3.38;0.63;;;;;;;;;;5010191;28;20430;-58
2022/07/09 03:58:39;;;;;;;3.63;1.50;;;;;;;;;;5012897;28;20018;-58
2022/07/09 04:01:05;;;;;;;2.60;0.95;;;;;;;;;;5021404;28;20390;-58
2022/07/09 04:03:31;;;;;;;1.13;0.75;;;;;;;;;;5008323;28;20371;-51
2022/07/09 04:05:57;;;;;;;3.28;0.90;;;;;;;;;;5013418;28;20041;-59
2022/07/09 04:08:23;;;;;;;1.65;0.88;;;;;;;;;;5015519;28;20053;-59
2022/07/09 04:10:49;;;;;;;1.83;0.70;;;;;;;;;;5012656;28;20880;-59
2022/07/09 04:13:15;;;;;;;1.05;0.60;;;;;;;;;;5014008;28;20124;-56
2022/07/09 04:15:41;;;;;;;1.50;0.82;;;;;;;;;;5011622;28;20018;-58
2022/07/09 04:18:07;;;;;;;1.30;0.80;;;;;;;;;;5014289;28;20026;-59
2022/07/09 04:20:33;;;;;;;1.73;0.85;;;;;;;;;;5008666;28;20486;-58
2022/07/09 04:22:59;;;;;;;1.05;0.90;;;;;;;;;;5014187;28;20040;-58
2022/07/09 04:25:25;;;;;;;2.35;0.70;;;;;;;;;;5016170;28;20037;-59
2022/07/09 04:27:51;;;;;;;2.28;0.90;;;;;;;;;;5027218;28;20359;-58
2022/07/09 04:30:17;;;;;;;2.08;1.00;;;;;;;;;;5021278;28;20054;-59
2022/07/09 04:32:43;;;;;;;1.40;0.80;;;;;;;;;;5015594;28;20371;-58
2022/07/09 04:35:09;;;;;;;3.03;1.10;;;;;;;;;;5009425;28;20085;-58
2022/07/09 04:37:35;;;;;;;2.13;1.10;;;;;;;;;;5016331;28;20029;-57
2022/07/09 04:40:01;;;;;;;3.08;0.80;;;;;;;;;;5026622;28;20454;-57
2022/07/09 04:42:27;;;;;;;2.78;1.02;;;;;;;;;;5018079;28;20034;-58
2022/07/09 04:44:53;;;;;;;1.30;0.82;;;;;;;;;;5014271;28;20430;-58
2022/07/09 04:47:19;;;;;;;1.33;0.80;;;;;;;;;;5017814;28;20135;-58
2022/07/09 04:49:45;;;;;;;2.17;0.90;;;;;;;;;;5020419;28;20034;-58
2022/07/09 04:52:16;;;;;;;1.08;0.88;;;;;;;;;;5016721;28;20399;-57
2022/07/09 04:54:42;;;;;;;4.35;1.20;;;;;;;;;;5014520;28;20061;-58
2022/07/09 04:57:08;;;;;;;1.20;0.82;;;;;;;;;;5017974;28;20033;-56
2022/07/09 04:59:34;;;;;;;1.30;0.63;;;;;;;;;;5009283;28;20030;-57
2022/07/09 05:02:00;;;;;;;2.33;0.88;;;;;;;;;;5018904;28;20041;-56
2022/07/09 05:04:26;;;;;;;1.25;0.73;;;;;;;;;;5011887;28;20052;-57
2022/07/09 05:06:52;;;;;;;2.03;1.10;;;;;;;;;;5014253;28;20510;-58
2022/07/09 05:09:18;;;;;;;2.33;1.30;;;;;;;;;;5016653;28;20072;-57
2022/07/09 05:11:44;;;;;;;3.28;1.20;;;;;;;;;;5012669;28;20466;-58
2022/07/09 05:14:10;;;;;;;1.60;0.82;;;;;;;;;;5011690;28;20056;-58
2022/07/09 05:16:36;;;;;;;1.30;0.90;;;;;;;;;;5020781;28;20037;-58
2022/07/09 05:19:02;;;;;;;1.48;0.82;;;;;;;;;;5014895;28;20030;-58
2022/07/09 05:21:28;;;;;;;2.50;0.90;;;;;;;;;;5009185;28;20033;-55
2022/07/09 05:23:54;;;;;;;3.72;1.23;;;;;;;;;;5022622;28;20477;-58
2022/07/09 05:26:20;;;;;;;1.90;0.60;;;;;;;;;;5022559;28;20104;-58
2022/07/09 05:28:46;;;;;;;2.05;0.68;;;;;;;;;;5009343;28;20030;-58
2022/07/09 05:31:13;;;;;;;2.58;0.90;;;;;;;;;;5023133;28;20372;-58
2022/07/09 05:33:39;;;;;;;2.70;0.90;;;;;;;;;;5019218;28;20034;-58
2022/07/09 05:36:05;;;;;;;2.17;0.85;;;;;;;;;;5016948;28;20032;-57
2022/07/09 05:38:31;;;;;;;1.63;1.10;;;;;;;;;;5014872;28;20026;-58
2022/07/09 05:40:57;;;;;;;2.22;1.00;;;;;;;;;;5017131;28;20033;-58
2022/07/09 05:43:23;;;;;;;1.65;0.93;;;;;;;;;;5020215;28;20052;-57
2022/07/09 05:45:49;;;;;;;2.17;1.10;;;;;;;;;;5012246;28;20467;-55
2022/07/09 05:48:15;;;;;;;3.17;1.02;;;;;;;;;;5014978;28;20026;-55
2022/07/09 05:50:41;;;;;;;0.93;0.77;;;;;;;;;;5003987;28;20520;-56
2022/07/09 05:53:07;;;;;;;2.47;0.82;;;;;;;;;;5015178;28;20045;-57
2022/07/09 05:55:33;;;;;;;4.00;0.82;;;;;;;;;;5013482;28;20133;-58
2022/07/09 05:57:59;;;;;;;2.90;0.98;;;;;;;;;;5013632;28;20038;-57
2022/07/09 06:00:25;;;;;;;2.22;1.08;;;;;;;;;;5010071;28;20479;-56
2022/07/09 06:02:51;;;;;;;4.72;1.77;;;;;;;;;;5009066;28;20033;-59
2022/07/09 06:05:19;;;;;;;10.00;1.17;;;;;;;;;;5011087;28;20882;-58
2022/07/09 06:07:45;;;;;;;3.25;0.70;;;;;;;;;;5010197;28;20079;-58
2022/07/09 06:10:13;;;;;;;1.50;0.85;;;;;;;;;;5009735;28;20034;-55
2022/07/09 06:12:40;;;;;;;4.65;0.70;;;;;;;;;;5008014;28;20026;-58
2022/07/09 06:15:06;;;;;;;2.03;1.10;;;;;;;;;;5013108;28;20228;-57
2022/07/09 06:17:32;;;;;;;1.00;0.68;;;;;;;;;;5005786;28;20034;-56
2022/07/09 06:19:58;;;;;;;1.38;0.93;;;;;;;;;;5006406;28;20375;-58
2022/07/09 06:22:24;;;;;;;4.50;1.73;;;;;;;;;;5013246;28;20030;-58
2022/07/09 06:24:50;;;;;;;2.20;0.80;;;;;;;;;;5015105;28;20084;-59
2022/07/09 06:27:16;;;;;;;1.73;0.80;;;;;;;;;;5013465;28;20033;-58
2022/07/09 06:29:42;;;;;;;1.42;0.68;;;;;;;;;;5015976;28;20026;-57
2022/07/09 06:32:08;;;;;;;1.92;0.70;;;;;;;;;;5013160;28;20042;-59
2022/07/09 06:34:34;;;;;;;1.50;0.90;;;;;;;;;;5011940;28;20026;-58
2022/07/09 06:37:00;;;;;;;2.70;0.82;;;;;;;;;;5007932;28;20041;-58
2022/07/09 06:39:45;;;;;;;2.50;0.70;;;;;;;;;;5017661;28;20494;-57
2022/07/09 06:42:11;;;;;;;2.50;1.02;;;;;;;;;;5015331;28;20030;-58
2022/07/09 06:44:37;;;;;;;2.78;1.02;;;;;;;;;;5016255;28;20092;-58
2022/07/09 06:47:04;;;;;;;3.20;0.73;;;;;;;;;;5013023;28;20041;-58
2022/07/09 06:49:30;;;;;;;3.25;0.70;;;;;;;;;;5014713;28;20429;-56
2022/07/09 06:51:56;;;;;;;2.25;0.70;;;;;;;;;;5012426;28;20049;-59
2022/07/09 06:54:22;;;;;;;1.63;0.73;;;;;;;;;;5010419;28;20034;-56
2022/07/09 06:56:48;;;;;;;4.55;1.17;;;;;;;;;;5008395;28;20061;-56
2022/07/09 06:59:14;;;;;;;6.35;1.60;;;;;;;;;;5013769;28;20030;-59
2022/07/09 07:01:40;;;;;;;7.43;1.17;;;;;;;;;;5013501;28;20042;-56
2022/07/09 07:04:06;;;;;;;2.63;0.90;;;;;;;;;;5011088;28;20045;-52
2022/07/09 07:06:32;;;;;;;4.60;1.10;;;;;;;;;;5013285;28;20487;-55
2022/07/09 07:08:59;;;;;;;5.47;1.08;;;;;;;;;;5009478;28;20045;-55
2022/07/09 07:11:25;;;;;;;5.07;0.90;;;;;;;;;;5012290;28;20037;-57
2022/07/09 07:13:51;;;;;;;7.05;2.40;;;;;;;;;;5010641;28;20026;-56
2022/07/09 07:16:17;;;;;;;5.13;1.60;;;;;;;;;;5007983;28;20041;-55
2022/07/09 07:18:43;;;;;;;4.05;0.80;;;;;;;;;;5008650;28;20026;-57
2022/07/09 07:21:09;;;;;;;14.13;1.95;;;;;;;;;;5014904;28;20057;-57
2022/07/09 07:23:35;;;;;;;7.75;1.73;;;;;;;;;;5004060;28;20030;-55
2022/07/09 07:26:01;;;;;;;13.05;1.45;;;;;;;;;;5014167;28;20026;-56
2022/07/09 07:28:27;;;;;;;4.68;1.08;;;;;;;;;;5017957;28;20045;-55
2022/07/09 07:30:54;;;;;;;4.72;1.52;;;;;;;;;;4991534;28;20034;-54
2022/07/09 07:33:20;;;;;;;2.97;1.65;;;;;;;;;;5009171;28;20479;-58
2022/07/09 07:35:46;;;;;;;4.82;1.63;;;;;;;;;;5015989;28;20041;-55
2022/07/09 07:38:12;;;;;;;4.05;1.63;;;;;;;;;;5011515;28;20045;-53
2022/07/09 07:40:38;;;;;;;5.22;1.67;;;;;;;;;;5009497;28;20081;-58
2022/07/09 07:43:04;;;;;;;5.60;1.65;;;;;;;;;;5007772;28;20038;-57
2022/07/09 07:45:30;;;;;;;9.05;1.95;;;;;;;;;;5008279;28;20471;-58
2022/07/09 07:47:56;;;;;;;7.05;1.70;;;;;;;;;;5013345;28;20080;-57
2022/07/09 07:50:23;;;;;;;4.07;1.90;;;;;;;;;;5015136;28;20042;-57
2022/07/09 07:52:49;;;;;;;7.45;1.55;;;;;;;;;;5011521;28;20058;-56
2022/07/09 07:55:15;;;;;;;4.07;1.80;;;;;;;;;;5012211;28;20047;-57
2022/07/09 07:57:41;;;;;;;3.65;1.80;;;;;;;;;;5014784;28;20025;-63
2022/07/09 08:00:07;;;;;;;7.90;2.63;;;;;;;;;;5014686;28;20437;-65
2022/07/09 08:02:37;;;;;;;3.22;1.65;;;;;;;;;;5013183;28;20025;-58
2022/07/09 08:05:03;;;;;;;5.25;2.47;;;;;;;;;;5010455;28;20041;-54
2022/07/09 08:07:29;;;;;;;6.00;2.10;;;;;;;;;;5015363;28;20030;-56
2022/07/09 08:09:55;;;;;;;6.57;1.85;;;;;;;;;;5015378;28;20041;-58
2022/07/09 08:12:21;;;;;;;4.13;1.52;;;;;;;;;;5016247;28;20056;-61
2022/07/09 08:14:47;;;;;;;4.32;1.63;;;;;;;;;;5012534;28;20041;-57
2022/07/09 08:17:13;;;;;;;5.38;1.85;;;;;;;;;;5012198;28;20113;-55
2022/07/09 08:19:39;;;;;;;3.80;1.73;;;;;;;;;;5015869;28;20048;-55
2022/07/09 08:22:05;;;;;;;5.45;1.92;;;;;;;;;;5017540;28;20057;-54
2022/07/09 08:24:31;;;;;;;5.32;1.50;;;;;;;;;;5014493;28;20479;-55
2022/07/09 08:26:58;;;;;;;4.32;1.50;;;;;;;;;;5012020;28;20042;-54
2022/07/09 08:29:25;;;;;;;3.97;1.52;;;;;;;;;;5014759;28;20029;-57
2022/07/09 08:31:51;;;;;;;4.63;1.50;;;;;;;;;;5018365;28;20049;-54
2022/07/09 08:34:17;;;;;;;6.18;1.70;;;;;;;;;;5015714;28;20166;-56
2022/07/09 08:36:44;;;;;;;3.00;1.40;;;;;;;;;;5012794;28;20046;-56
2022/07/09 08:39:10;;;;;;;6.80;2.00;;;;;;;;;;5011117;28;20045;-49
2022/07/09 08:41:36;;;;;;;5.45;1.65;;;;;;;;;;5008306;28;20049;-54
2022/07/09 08:44:05;;;;;;;4.13;1.70;;;;;;;;;;5016737;28;20072;-50
2022/07/09 08:46:34;;;;;;;4.72;1.73;;;;;;;;;;5014882;28;20070;-57
2022/07/09 08:49:00;;;;;;;3.58;1.20;;;;;;;;;;5013373;28;20060;-56
2022/07/09 08:51:26;;;;;;;3.88;1.38;;;;;;;;;;5013548;28;20050;-57
2022/07/09 08:53:57;;;;;;;3.03;1.23;;;;;;;;;;5011664;28;20056;-56
2022/07/09 08:56:23;;;;;;;2.03;1.33;;;;;;;;;;5009033;28;20534;-58
2022/07/09 08:58:49;;;;;;;2.28;1.05;;;;;;;;;;5008616;28;20033;-55
2022/07/09 09:01:17;;;;;;;4.50;1.10;;;;;;;;;;5014162;28;20080;-57
2022/07/09 09:03:43;;;;;;;2.58;1.25;;;;;;;;;;5014752;28;20102;-54
2022/07/09 09:06:10;;;;;;;1.40;1.10;;;;;;;;;;5011198;28;20069;-52
2022/07/09 09:08:37;;;;;;;8.50;1.30;;;;;;;;;;5011926;28;20532;-57
2022/07/09 09:11:04;;;;;;;3.90;1.10;;;;;;;;;;5011686;28;20398;-56
2022/07/09 09:13:30;;;;;;;3.80;1.00;;;;;;;;;;5012195;28;20034;-58
2022/07/09 09:16:03;;;;;;;2.60;0.88;;;;;;;;;;5012633;28;20050;-57
2022/07/09 09:18:29;;;;;;;4.90;1.02;;;;;;;;;;5012811;28;20026;-57
2022/07/09 09:21:01;;;;;;;2.72;0.82;;;;;;;;;;5011047;28;20099;-55
2022/07/09 09:23:27;;;;;;;2.35;0.65;;;;;;;;;;5014627;28;20038;-56
2022/07/09 09:25:53;;;;;;;2.95;0.82;;;;;;;;;;5012920;28;20505;-58
2022/07/09 09:28:19;;;;;;;2.78;0.82;;;;;;;;;;5010758;28;20025;-58
2022/07/09 09:30:46;;;;;;;2.63;1.45;;;;;;;;;;5010468;28;20437;-54
2022/07/09 09:33:15;;;;;;;1.95;0.73;;;;;;;;;;5014479;28;20048;-57
2022/07/09 09:35:45;;;;;;;2.03;0.80;;;;;;;;;;5012266;28;20034;-55
2022/07/09 09:38:11;;;;;;;2.50;0.70;;;;;;;;;;5013135;28;20025;-57
2022/07/09 09:40:39;;;;;;;2.17;1.52;;;;;;;;;;5015439;28;20378;-58
2022/07/09 09:43:04;;;;;;;2.20;1.13;;;;;;;;;;5002503;28;20521;-59
2022/07/09 09:45:33;;;;;;;1.92;0.73;;;;;;;;;;5013458;28;20026;-57
2022/07/09 09:48:00;;;;;;;3.65;0.82;;;;;;;;;;5013426;28;20471;-56
2022/07/09 09:50:26;;;;;;;3.47;1.63;;;;;;;;;;5012131;28;20038;-50
2022/07/09 09:52:54;;;;;;;1.58;0.70;;;;;;;;;;5012416;28;20096;-55
2022/07/09 09:55:20;;;;;;;3.17;0.98;;;;;;;;;;5015371;28;20021;-57
2022/07/09 09:57:46;;;;;;;3.05;1.45;;;;;;;;;;5017777;28;20438;-55
2022/07/09 10:00:13;;;;;;;2.60;1.00;;;;;;;;;;5007716;28;20037;-57
2022/07/09 10:02:43;;;;;;;3.05;1.00;;;;;;;;;;5014512;28;20036;-56
2022/07/09 10:05:09;;;;;;;1.58;0.88;;;;;;;;;;5013020;28;20447;-58
2022/07/09 10:07:35;;;;;;;2.05;0.82;;;;;;;;;;5014717;28;20096;-58
2022/07/09 10:10:01;;;;;;;2.70;1.05;;;;;;;;;;5012729;28;20030;-57
2022/07/09 10:12:28;;;;;;;3.90;1.30;;;;;;;;;;5015885;28;20478;-57
2022/07/09 10:14:54;;;;;;;5.55;1.02;;;;;;;;;;5010740;28;20026;-53
2022/07/09 10:17:20;;;;;;;3.88;1.00;;;;;;;;;;5006316;28;20030;-55
2022/07/09 10:19:53;;;;;;;4.43;1.23;;;;;;;;;;5010795;28;20018;-55
2022/07/09 10:22:19;;;;;;;4.88;1.17;;;;;;;;;;5014274;28;20037;-54
2022/07/09 10:24:46;;;;;;;1.70;0.85;;;;;;;;;;5016055;28;20031;-55
2022/07/09 10:27:13;;;;;;;2.97;0.80;;;;;;;;;;5014233;28;20495;-55
2022/07/09 10:29:55;;;;;;;3.38;0.88;;;;;;;;;;5014801;28;20033;-54
2022/07/09 10:32:25;;;;;;;4.00;1.08;;;;;;;;;;5011123;28;20018;-53
2022/07/09 10:34:57;;;;;;;3.30;1.08;;;;;;;;;;5009370;28;20517;-54
2022/07/09 10:37:33;;;;;;;1.23;0.70;;;;;;;;;;5017303;28;20040;-54
2022/07/09 10:40:27;;;;;;;1.58;0.90;;;;;;;;;;5013934;28;20139;-50
2022/07/09 10:43:00;;;;;;;3.55;0.90;;;;;;;;;;5006010;28;20399;-54
2022/07/09 10:45:27;;;;;;;2.80;0.98;;;;;;;;;;5010086;28;20066;-54
2022/07/09 10:47:57;;;;;;;2.83;1.13;;;;;;;;;;5012020;28;20041;-55
2022/07/09 10:50:23;;;;;;;1.70;0.85;;;;;;;;;;5011691;28;20075;-55
2022/07/09 10:52:50;;;;;;;2.42;1.13;;;;;;;;;;5008026;28;20598;-54
2022/07/09 10:55:28;;;;;;;2.25;0.73;;;;;;;;;;5018914;28;20575;-56
2022/07/09 10:57:54;;;;;;;1.17;0.65;;;;;;;;;;5015645;28;20036;-56
2022/07/09 11:00:21;;;;;;;2.60;0.65;;;;;;;;;;5007620;28;20387;-55
2022/07/09 11:02:53;;;;;;;2.05;0.60;;;;;;;;;;5014855;28;20026;-53
2022/07/09 11:05:19;;;;;;;0.63;0.50;;;;;;;;;;5016276;28;20092;-54
2022/07/09 11:07:54;;;;;;;2.08;0.80;;;;;;;;;;5011217;28;20026;-55
2022/07/09 11:10:21;;;;;;;2.05;0.85;;;;;;;;;;5013606;28;20030;-54
2022/07/09 11:12:50;;;;;;;3.10;0.93;;;;;;;;;;5011636;28;20060;-54
2022/07/09 11:15:22;;;;;;;1.80;0.80;;;;;;;;;;5004464;28;20034;-52
2022/07/09 11:17:55;;;;;;;5.28;1.25;;;;;;;;;;5011926;28;20092;-51
2022/07/09 11:20:21;;;;;;;4.40;1.00;;;;;;;;;;5006778;28;20042;-54
2022/07/09 11:22:50;;;;;;;2.05;0.90;;;;;;;;;;5006691;28;20026;-57
2022/07/09 11:25:16;;;;;;;2.65;0.98;;;;;;;;;;5010187;28;20450;-57
2022/07/09 11:27:42;;;;;;;3.50;1.13;;;;;;;;;;5014130;28;20502;-58
2022/07/09 11:30:15;;;;;;;3.78;1.00;;;;;;;;;;5011192;28;20046;-58
2022/07/09 11:32:44;;;;;;;2.40;1.00;;;;;;;;;;5016771;28;20030;-56
2022/07/09 11:35:10;;;;;;;2.38;1.05;;;;;;;;;;5012581;28;20034;-50
2022/07/09 11:37:37;;;;;;;3.53;0.73;;;;;;;;;;5014347;28;20057;-56
2022/07/09 11:40:03;;;;;;;3.80;1.17;;;;;;;;;;5010111;28;20035;-55
2022/07/09 11:42:29;;;;;;;3.95;0.80;;;;;;;;;;5010025;28;20109;-55
2022/07/09 11:44:57;;;;;;;1.60;0.98;;;;;;;;;;5013837;28;20057;-55
2022/07/09 11:47:32;;;;;;;6.10;1.42;;;;;;;;;;5012052;28;20022;-55
2022/07/09 11:50:05;;;;;;;3.88;1.10;;;;;;;;;;5008190;28;20038;-55
2022/07/09 11:52:32;;;;;;;1.65;0.68;;;;;;;;;;5014898;28;20050;-56
2022/07/09 11:55:04;;;;;;;1.83;0.70;;;;;;;;;;5012066;28;20549;-55
2022/07/09 11:57:32;;;;;;;1.40;0.70;;;;;;;;;;5007971;28;20038;-55
2022/07/09 11:59:58;;;;;;;2.95;1.30;;;;;;;;;;5008811;28;20042;-54
2022/07/09 12:02:25;;;;;;;1.00;0.70;;;;;;;;;;5008728;28;20025;-56
2022/07/09 12:04:51;;;;;;;2.22;0.93;;;;;;;;;;5008976;28;20526;-57
2022/07/09 12:07:17;;;;;;;2.50;0.85;;;;;;;;;;5011809;28;20037;-54
2022/07/09 12:09:43;;;;;;;1.52;0.85;;;;;;;;;;5011706;28;20418;-57
2022/07/09 12:12:09;;;;;;;3.78;0.90;;;;;;;;;;5013736;28;20026;-56
2022/07/09 12:14:35;;;;;;;4.22;0.93;;;;;;;;;;5004348;28;20045;-57
2022/07/09 12:17:01;;;;;;;2.10;0.50;;;;;;;;;;5003301;28;20018;-57
2022/07/09 12:19:27;;;;;;;1.02;0.73;;;;;;;;;;5011175;28;20034;-57
2022/07/09 12:21:54;;;;;;;2.17;0.75;;;;;;;;;;5010755;28;20030;-56
2022/07/09 12:24:19;;;;;;;2.38;0.85;;;;;;;;;;5008223;28;20068;-55
2022/07/09 12:26:45;;;;;;;1.55;0.70;;;;;;;;;;5007764;28;20109;-57
2022/07/09 12:29:11;;;;;;;2.40;0.80;;;;;;;;;;5011157;28;20050;-57
2022/07/09 12:31:37;;;;;;;1.33;0.70;;;;;;;;;;5007039;28;20033;-55
2022/07/09 12:34:05;;;;;;;2.20;0.70;;;;;;;;;;5017901;28;20029;-55
2022/07/09 12:36:31;;;;;;;2.13;0.60;;;;;;;;;;5008969;28;20038;-53
2022/07/09 12:38:57;;;;;;;2.05;0.63;;;;;;;;;;5007115;28;20445;-53
2022/07/09 12:41:23;;;;;;;1.55;0.90;;;;;;;;;;5008354;28;20026;-49
2022/07/09 12:43:49;;;;;;;0.70;0.45;;;;;;;;;;5016754;28;20084;-55
2022/07/09 12:46:15;;;;;;;6.10;0.98;;;;;;;;;;5016761;28;20387;-55
2022/07/09 12:48:41;;;;;;;1.65;0.63;;;;;;;;;;5012010;28;20031;-50
2022/07/09 12:51:07;;;;;;;2.22;1.00;;;;;;;;;;5013475;28;20045;-57
2022/07/09 12:53:33;;;;;;;1.13;0.60;;;;;;;;;;5013369;28;20157;-54
2022/07/09 12:55:59;;;;;;;1.50;0.70;;;;;;;;;;5006308;28;20096;-51
2022/07/09 12:58:25;;;;;;;0.82;0.63;;;;;;;;;;5016441;28;20021;-52
2022/07/09 13:00:51;;;;;;;3.10;0.63;;;;;;;;;;5016965;28;20562;-53
2022/07/09 13:03:17;;;;;;;1.02;0.60;;;;;;;;;;4994042;28;20050;-52
2022/07/09 13:05:43;;;;;;;1.65;0.60;;;;;;;;;;5015087;28;20510;-58
2022/07/09 13:08:09;;;;;;;1.80;0.60;;;;;;;;;;5009409;28;20030;-57
2022/07/09 13:10:35;;;;;;;1.60;0.52;;;;;;;;;;5013961;28;20061;-58
2022/07/09 13:13:01;;;;;;;3.63;0.90;;;;;;;;;;5014099;28;20045;-55
2022/07/09 13:15:27;;;;;;;2.92;1.13;;;;;;;;;;5014631;28;20038;-55
2022/07/09 13:17:54;;;;;;;0.80;0.70;;;;;;;;;;5011973;28;20113;-55
2022/07/09 13:20:20;;;;;;;2.70;0.60;;;;;;;;;;5014690;28;20038;-58
2022/07/09 13:22:46;;;;;;;1.25;0.45;;;;;;;;;;5015249;28;20096;-56
2022/07/09 13:25:12;;;;;;;3.30;1.30;;;;;;;;;;5008017;28;20121;-58
2022/07/09 13:27:38;;;;;;;2.25;0.80;;;;;;;;;;5015114;28;20105;-58
2022/07/09 13:30:04;;;;;;;1.25;0.73;;;;;;;;;;5013900;28;20088;-58
2022/07/09 13:32:30;;;;;;;4.35;0.70;;;;;;;;;;5014529;28;20030;-60
2022/07/09 13:34:56;;;;;;;3.17;0.90;;;;;;;;;;5012099;28;20375;-57
2022/07/09 13:37:22;;;;;;;2.50;0.60;;;;;;;;;;5013271;28;20026;-58
2022/07/09 13:39:49;;;;;;;2.20;0.85;;;;;;;;;;5019269;28;20026;-58
2022/07/09 13:42:15;;;;;;;4.97;0.50;;;;;;;;;;5006706;28;20521;-58
2022/07/09 13:44:41;;;;;;;1.77;0.40;;;;;;;;;;5013787;28;20042;-58
2022/07/09 13:47:07;;;;;;;0.90;0.65;;;;;;;;;;5014574;28;20117;-57
2022/07/09 13:49:33;;;;;;;1.17;0.80;;;;;;;;;;5015487;28;20029;-56
2022/07/09 13:51:59;;;;;;;3.25;0.70;;;;;;;;;;5014367;28;20049;-53
2022/07/09 13:54:25;;;;;;;2.35;0.68;;;;;;;;;;5009053;28;20088;-58
2022/07/09 13:56:51;;;;;;;1.08;0.95;;;;;;;;;;5017052;28;20042;-53
2022/07/09 13:59:17;;;;;;;0.65;0.57;;;;;;;;;;5013796;28;20940;-51
2022/07/09 14:01:43;;;;;;;2.40;0.57;;;;;;;;;;5010847;28;20099;-57
2022/07/09 14:04:09;;;;;;;1.67;0.60;;;;;;;;;;5007995;28;20392;-56
2022/07/09 14:06:35;;;;;;;2.95;0.52;;;;;;;;;;5012810;28;20057;-51
2022/07/09 14:09:01;;;;;;;0.73;0.60;;;;;;;;;;5009264;28;20482;-56
2022/07/09 14:11:27;;;;;;;3.85;0.90;;;;;;;;;;5013328;28;20117;-57
2022/07/09 14:13:54;;;;;;;1.92;0.70;;;;;;;;;;5019902;28;20494;-57
2022/07/09 14:16:21;;;;;;;1.88;0.63;;;;;;;;;;5004516;28;20042;-57
2022/07/09 14:18:47;;;;;;;2.13;0.75;;;;;;;;;;5010064;28;20026;-56
2022/07/09 14:21:13;;;;;;;1.17;0.57;;;;;;;;;;5010007;28;20041;-55
2022/07/09 14:23:39;;;;;;;1.05;0.68;;;;;;;;;;5010671;28;20471;-51
2022/07/09 14:26:05;;;;;;;3.13;0.68;;;;;;;;;;5011808;28;20158;-56
2022/07/09 14:28:31;;;;;;;1.02;0.50;;;;;;;;;;5012371;28;20034;-56
2022/07/09 14:30:57;;;;;;;1.00;0.55;;;;;;;;;;5015490;28;20125;-54
2022/07/09 14:33:23;;;;;;;0.68;0.47;;;;;;;;;;5021111;28;20038;-57
2022/07/09 14:35:49;;;;;;;1.00;0.50;;;;;;;;;;5017670;28;20046;-57
2022/07/09 14:38:15;;;;;;;0.90;0.50;;;;;;;;;;5010192;28;20485;-58
2022/07/09 14:40:41;;;;;;;1.23;0.70;;;;;;;;;;5003871;28;20113;-56